sensor_id;sensor_type;location;lat;lon;timestamp;P1;durP1;ratioP1;P2;durP2;ratioP2
78854;SDS011;68206;59.956;30.234;2023-03-01T00:00:08;3.20;;;1.00;;
78854;SDS011;68206;59.956;30.234;2023-03-01T00:02:37;2.80;;;1.00;;
78854;SDS011;68206;59.956;30.234;2023-03-01T00:05:07;1.50;;;0.70;;
78854;SDS011;68206;59.956;30.234;2023-03-01T00:07:36;1.00;;;0.63;;
78854;SDS011;68206;59.956;30.234;2023-03-01T00:10:05;0.85;;;0.60;;
78854;SDS011;68206;59.956;30.234;2023-03-01T00:12:35;3.03;;;0.98;;
78854;SDS011;68206;59.956;30.234;2023-03-01T00:15:05;0.60;;;0.35;;
78854;SDS011;68206;59.956;30.234;2023-03-01T00:17:34;4.20;;;0.98;;
78854;SDS011;68206;59.956;30.234;2023-03-01T00:20:03;1.10;;;1.00;;
78854;SDS011;68206;59.956;30.234;2023-03-01T00:22:35;2.92;;;0.70;;
78854;SDS011;68206;59.956;30.234;2023-03-01T00:25:04;3.65;;;1.42;;
78854;SDS011;68206;59.956;30.234;2023-03-01T00:27:33;1.67;;;1.05;;
78854;SDS011;68206;59.956;30.234;2023-03-01T00:30:04;0.52;;;0.52;;
78854;SDS011;68206;59.956;30.234;2023-03-01T00:32:33;2.30;;;1.00;;
78854;SDS011;68206;59.956;30.234;2023-03-01T00:35:02;3.63;;;0.60;;
78854;SDS011;68206;59.956;30.234;2023-03-01T00:37:32;1.10;;;0.63;;
78854;SDS011;68206;59.956;30.234;2023-03-01T00:40:01;2.22;;;1.25;;
78854;SDS011;68206;59.956;30.234;2023-03-01T00:42:33;2.25;;;1.20;;
78854;SDS011;68206;59.956;30.234;2023-03-01T00:45:04;5.15;;;1.63;;
78854;SDS011;68206;59.956;30.234;2023-03-01T00:47:35;0.90;;;0.75;;
78854;SDS011;68206;59.956;30.234;2023-03-01T00:50:03;2.15;;;1.30;;
78854;SDS011;68206;59.956;30.234;2023-03-01T00:52:33;5.93;;;1.20;;
78854;SDS011;68206;59.956;30.234;2023-03-01T00:55:02;1.40;;;0.98;;
78854;SDS011;68206;59.956;30.234;2023-03-01T00:57:32;1.05;;;0.75;;
78854;SDS011;68206;59.956;30.234;2023-03-01T01:00:00;1.55;;;0.98;;
78854;SDS011;68206;59.956;30.234;2023-03-01T01:02:33;1.27;;;0.85;;
78854;SDS011;68206;59.956;30.234;2023-03-01T01:05:03;1.98;;;0.98;;
78854;SDS011;68206;59.956;30.234;2023-03-01T01:07:32;5.03;;;1.65;;
78854;SDS011;68206;59.956;30.234;2023-03-01T01:10:01;2.65;;;1.08;;
78854;SDS011;68206;59.956;30.234;2023-03-01T01:12:31;1.98;;;1.00;;
78854;SDS011;68206;59.956;30.234;2023-03-01T01:15:00;2.03;;;1.23;;
78854;SDS011;68206;59.956;30.234;2023-03-01T01:17:29;1.27;;;0.70;;
78854;SDS011;68206;59.956;30.234;2023-03-01T01:19:59;2.53;;;1.45;;
78854;SDS011;68206;59.956;30.234;2023-03-01T01:22:28;0.57;;;0.50;;
78854;SDS011;68206;59.956;30.234;2023-03-01T01:24:57;2.72;;;1.08;;
78854;SDS011;68206;59.956;30.234;2023-03-01T01:27:26;1.55;;;0.95;;
78854;SDS011;68206;59.956;30.234;2023-03-01T01:29:54;2.03;;;1.00;;
78854;SDS011;68206;59.956;30.234;2023-03-01T01:32:23;2.30;;;1.15;;
78854;SDS011;68206;59.956;30.234;2023-03-01T01:34:53;5.70;;;1.23;;
78854;SDS011;68206;59.956;30.234;2023-03-01T01:37:23;5.13;;;0.95;;
78854;SDS011;68206;59.956;30.234;2023-03-01T01:39:58;0.70;;;0.70;;
78854;SDS011;68206;59.956;30.234;2023-03-01T01:42:28;3.08;;;1.35;;
78854;SDS011;68206;59.956;30.234;2023-03-01T01:45:24;2.97;;;1.35;;
78854;SDS011;68206;59.956;30.234;2023-03-01T01:47:57;0.63;;;0.63;;
78854;SDS011;68206;59.956;30.234;2023-03-01T01:50:29;1.50;;;1.00;;
78854;SDS011;68206;59.956;30.234;2023-03-01T01:53:08;4.78;;;0.88;;
78854;SDS011;68206;59.956;30.234;2023-03-01T01:55:41;3.17;;;1.15;;
78854;SDS011;68206;59.956;30.234;2023-03-01T01:58:15;5.15;;;0.88;;
78854;SDS011;68206;59.956;30.234;2023-03-01T02:00:47;1.10;;;0.70;;
78854;SDS011;68206;59.956;30.234;2023-03-01T02:03:17;2.20;;;0.90;;
78854;SDS011;68206;59.956;30.234;2023-03-01T02:05:50;2.33;;;0.80;;
78854;SDS011;68206;59.956;30.234;2023-03-01T02:08:26;1.25;;;0.70;;
78854;SDS011;68206;59.956;30.234;2023-03-01T02:10:57;3.55;;;1.00;;
78854;SDS011;68206;59.956;30.234;2023-03-01T02:13:27;2.08;;;0.95;;
78854;SDS011;68206;59.956;30.234;2023-03-01T02:15:56;2.58;;;0.88;;
78854;SDS011;68206;59.956;30.234;2023-03-01T02:18:26;2.03;;;0.85;;
78854;SDS011;68206;59.956;30.234;2023-03-01T02:21:00;2.08;;;0.93;;
78854;SDS011;68206;59.956;30.234;2023-03-01T02:23:38;2.25;;;0.80;;
78854;SDS011;68206;59.956;30.234;2023-03-01T02:26:09;1.33;;;0.68;;
78854;SDS011;68206;59.956;30.234;2023-03-01T02:28:45;3.03;;;0.98;;
78854;SDS011;68206;59.956;30.234;2023-03-01T02:31:14;1.63;;;0.50;;
78854;SDS011;68206;59.956;30.234;2023-03-01T02:34:12;2.03;;;0.77;;
78854;SDS011;68206;59.956;30.234;2023-03-01T02:36:43;2.50;;;0.68;;
78854;SDS011;68206;59.956;30.234;2023-03-01T02:39:17;1.20;;;0.77;;
78854;SDS011;68206;59.956;30.234;2023-03-01T02:41:49;1.38;;;1.02;;
78854;SDS011;68206;59.956;30.234;2023-03-01T02:44:22;0.47;;;0.47;;
78854;SDS011;68206;59.956;30.234;2023-03-01T02:46:51;1.35;;;0.80;;
78854;SDS011;68206;59.956;30.234;2023-03-01T02:49:23;1.50;;;1.00;;
78854;SDS011;68206;59.956;30.234;2023-03-01T02:51:57;3.70;;;0.90;;
78854;SDS011;68206;59.956;30.234;2023-03-01T02:54:36;0.55;;;0.52;;
78854;SDS011;68206;59.956;30.234;2023-03-01T02:57:09;3.80;;;0.75;;
78854;SDS011;68206;59.956;30.234;2023-03-01T02:59:40;0.38;;;0.35;;
78854;SDS011;68206;59.956;30.234;2023-03-01T03:02:18;1.73;;;0.77;;
78854;SDS011;68206;59.956;30.234;2023-03-01T03:05:16;1.50;;;0.77;;
78854;SDS011;68206;59.956;30.234;2023-03-01T03:07:48;2.65;;;0.77;;
78854;SDS011;68206;59.956;30.234;2023-03-01T03:10:19;5.00;;;1.25;;
78854;SDS011;68206;59.956;30.234;2023-03-01T03:12:50;0.93;;;0.88;;
78854;SDS011;68206;59.956;30.234;2023-03-01T03:15:21;1.85;;;0.82;;
78854;SDS011;68206;59.956;30.234;2023-03-01T03:17:51;3.78;;;0.68;;
78854;SDS011;68206;59.956;30.234;2023-03-01T03:20:22;2.33;;;1.10;;
78854;SDS011;68206;59.956;30.234;2023-03-01T03:22:53;3.13;;;1.30;;
78854;SDS011;68206;59.956;30.234;2023-03-01T03:25:23;3.20;;;1.10;;
78854;SDS011;68206;59.956;30.234;2023-03-01T03:27:53;1.10;;;0.80;;
78854;SDS011;68206;59.956;30.234;2023-03-01T03:30:26;1.27;;;0.80;;
78854;SDS011;68206;59.956;30.234;2023-03-01T03:32:56;5.10;;;1.02;;
78854;SDS011;68206;59.956;30.234;2023-03-01T03:35:27;5.10;;;1.08;;
78854;SDS011;68206;59.956;30.234;2023-03-01T03:37:57;4.63;;;1.58;;
78854;SDS011;68206;59.956;30.234;2023-03-01T03:40:31;5.55;;;1.05;;
78854;SDS011;68206;59.956;30.234;2023-03-01T03:43:01;2.67;;;1.15;;
78854;SDS011;68206;59.956;30.234;2023-03-01T03:45:32;2.85;;;1.05;;
78854;SDS011;68206;59.956;30.234;2023-03-01T03:48:03;4.28;;;1.13;;
78854;SDS011;68206;59.956;30.234;2023-03-01T03:50:33;1.80;;;1.08;;
78854;SDS011;68206;59.956;30.234;2023-03-01T03:53:02;4.82;;;1.33;;
78854;SDS011;68206;59.956;30.234;2023-03-01T03:55:33;4.38;;;1.38;;
78854;SDS011;68206;59.956;30.234;2023-03-01T03:58:02;1.77;;;1.20;;
78854;SDS011;68206;59.956;30.234;2023-03-01T04:00:36;4.57;;;1.40;;
78854;SDS011;68206;59.956;30.234;2023-03-01T04:03:06;1.95;;;1.27;;
78854;SDS011;68206;59.956;30.234;2023-03-01T04:05:35;4.32;;;1.65;;
78854;SDS011;68206;59.956;30.234;2023-03-01T04:08:05;4.30;;;1.40;;
78854;SDS011;68206;59.956;30.234;2023-03-01T04:10:36;3.20;;;1.27;;
78854;SDS011;68206;59.956;30.234;2023-03-01T04:13:06;3.50;;;1.00;;
78854;SDS011;68206;59.956;30.234;2023-03-01T04:15:38;2.80;;;1.38;;
78854;SDS011;68206;59.956;30.234;2023-03-01T04:18:08;3.28;;;0.77;;
78854;SDS011;68206;59.956;30.234;2023-03-01T04:20:40;1.65;;;1.08;;
78854;SDS011;68206;59.956;30.234;2023-03-01T04:23:10;5.30;;;1.30;;
78854;SDS011;68206;59.956;30.234;2023-03-01T04:25:45;4.63;;;1.30;;
78854;SDS011;68206;59.956;30.234;2023-03-01T04:30:46;5.20;;;1.63;;
78854;SDS011;68206;59.956;30.234;2023-03-01T04:33:15;2.92;;;1.08;;
78854;SDS011;68206;59.956;30.234;2023-03-01T04:35:44;5.20;;;1.65;;
78854;SDS011;68206;59.956;30.234;2023-03-01T04:38:13;3.45;;;1.08;;
78854;SDS011;68206;59.956;30.234;2023-03-01T04:40:42;2.40;;;0.98;;
78854;SDS011;68206;59.956;30.234;2023-03-01T04:43:11;2.78;;;1.40;;
78854;SDS011;68206;59.956;30.234;2023-03-01T04:45:41;3.42;;;1.83;;
78854;SDS011;68206;59.956;30.234;2023-03-01T04:48:12;3.60;;;1.33;;
78854;SDS011;68206;59.956;30.234;2023-03-01T04:50:40;2.50;;;1.30;;
78854;SDS011;68206;59.956;30.234;2023-03-01T04:53:09;5.05;;;1.25;;
78854;SDS011;68206;59.956;30.234;2023-03-01T04:55:38;5.15;;;1.65;;
78854;SDS011;68206;59.956;30.234;2023-03-01T04:58:07;4.57;;;1.90;;
78854;SDS011;68206;59.956;30.234;2023-03-01T05:00:35;8.23;;;1.67;;
78854;SDS011;68206;59.956;30.234;2023-03-01T05:03:04;4.18;;;1.58;;
78854;SDS011;68206;59.956;30.234;2023-03-01T05:05:35;4.68;;;1.63;;
78854;SDS011;68206;59.956;30.234;2023-03-01T05:08:06;3.40;;;1.58;;
78854;SDS011;68206;59.956;30.234;2023-03-01T05:10:36;5.43;;;1.38;;
78854;SDS011;68206;59.956;30.234;2023-03-01T05:13:06;2.00;;;1.45;;
78854;SDS011;68206;59.956;30.234;2023-03-01T05:15:35;3.75;;;1.63;;
78854;SDS011;68206;59.956;30.234;2023-03-01T05:18:04;3.25;;;1.52;;
78854;SDS011;68206;59.956;30.234;2023-03-01T05:20:40;4.72;;;1.67;;
78854;SDS011;68206;59.956;30.234;2023-03-01T05:23:09;5.32;;;1.40;;
78854;SDS011;68206;59.956;30.234;2023-03-01T05:25:37;5.30;;;1.40;;
78854;SDS011;68206;59.956;30.234;2023-03-01T05:28:09;5.35;;;1.50;;
78854;SDS011;68206;59.956;30.234;2023-03-01T05:30:40;5.07;;;1.35;;
78854;SDS011;68206;59.956;30.234;2023-03-01T05:33:09;1.95;;;1.10;;
78854;SDS011;68206;59.956;30.234;2023-03-01T05:35:42;2.60;;;1.10;;
78854;SDS011;68206;59.956;30.234;2023-03-01T05:38:12;1.67;;;1.10;;
78854;SDS011;68206;59.956;30.234;2023-03-01T05:40:41;4.05;;;1.38;;
78854;SDS011;68206;59.956;30.234;2023-03-01T05:43:12;3.83;;;1.25;;
78854;SDS011;68206;59.956;30.234;2023-03-01T05:45:42;3.05;;;1.60;;
78854;SDS011;68206;59.956;30.234;2023-03-01T05:48:11;4.78;;;1.15;;
78854;SDS011;68206;59.956;30.234;2023-03-01T05:50:42;3.50;;;1.65;;
78854;SDS011;68206;59.956;30.234;2023-03-01T05:53:13;5.30;;;1.73;;
78854;SDS011;68206;59.956;30.234;2023-03-01T05:55:44;10.82;;;1.65;;
78854;SDS011;68206;59.956;30.234;2023-03-01T05:58:15;1.25;;;0.90;;
78854;SDS011;68206;59.956;30.234;2023-03-01T06:00:46;5.18;;;2.25;;
78854;SDS011;68206;59.956;30.234;2023-03-01T06:03:16;3.10;;;1.40;;
78854;SDS011;68206;59.956;30.234;2023-03-01T06:05:47;3.97;;;1.77;;
78854;SDS011;68206;59.956;30.234;2023-03-01T06:08:16;3.45;;;1.70;;
78854;SDS011;68206;59.956;30.234;2023-03-01T06:10:46;1.73;;;1.40;;
78854;SDS011;68206;59.956;30.234;2023-03-01T06:13:15;3.22;;;1.60;;
78854;SDS011;68206;59.956;30.234;2023-03-01T06:15:44;3.15;;;1.73;;
78854;SDS011;68206;59.956;30.234;2023-03-01T06:18:13;6.75;;;1.98;;
78854;SDS011;68206;59.956;30.234;2023-03-01T06:20:41;3.30;;;1.70;;
78854;SDS011;68206;59.956;30.234;2023-03-01T06:23:12;3.70;;;1.50;;
78854;SDS011;68206;59.956;30.234;2023-03-01T06:25:41;4.78;;;1.70;;
78854;SDS011;68206;59.956;30.234;2023-03-01T06:28:09;4.78;;;2.00;;
78854;SDS011;68206;59.956;30.234;2023-03-01T06:30:38;5.45;;;1.75;;
78854;SDS011;68206;59.956;30.234;2023-03-01T06:33:07;5.45;;;2.10;;
78854;SDS011;68206;59.956;30.234;2023-03-01T06:35:36;5.38;;;2.03;;
78854;SDS011;68206;59.956;30.234;2023-03-01T06:38:05;3.92;;;2.40;;
78854;SDS011;68206;59.956;30.234;2023-03-01T06:40:35;5.15;;;2.00;;
78854;SDS011;68206;59.956;30.234;2023-03-01T06:43:04;3.58;;;1.60;;
78854;SDS011;68206;59.956;30.234;2023-03-01T06:45:34;6.93;;;2.10;;
78854;SDS011;68206;59.956;30.234;2023-03-01T06:48:03;5.00;;;1.70;;
78854;SDS011;68206;59.956;30.234;2023-03-01T06:50:33;4.72;;;1.75;;
78854;SDS011;68206;59.956;30.234;2023-03-01T06:53:03;6.40;;;2.25;;
78854;SDS011;68206;59.956;30.234;2023-03-01T06:55:32;5.65;;;2.10;;
78854;SDS011;68206;59.956;30.234;2023-03-01T06:58:02;6.35;;;1.88;;
78854;SDS011;68206;59.956;30.234;2023-03-01T07:00:32;6.18;;;1.95;;
78854;SDS011;68206;59.956;30.234;2023-03-01T07:03:01;5.57;;;2.60;;
78854;SDS011;68206;59.956;30.234;2023-03-01T07:05:30;6.13;;;3.35;;
78854;SDS011;68206;59.956;30.234;2023-03-01T07:08:01;4.80;;;2.85;;
78854;SDS011;68206;59.956;30.234;2023-03-01T07:10:30;6.35;;;4.03;;
78854;SDS011;68206;59.956;30.234;2023-03-01T07:12:59;5.90;;;2.80;;
78854;SDS011;68206;59.956;30.234;2023-03-01T07:15:29;3.83;;;3.05;;
78854;SDS011;68206;59.956;30.234;2023-03-01T07:18:00;5.00;;;4.22;;
78854;SDS011;68206;59.956;30.234;2023-03-01T07:20:28;4.75;;;2.50;;
78854;SDS011;68206;59.956;30.234;2023-03-01T07:22:57;5.00;;;2.38;;
78854;SDS011;68206;59.956;30.234;2023-03-01T07:25:26;4.32;;;2.40;;
78854;SDS011;68206;59.956;30.234;2023-03-01T07:27:55;7.20;;;2.22;;
78854;SDS011;68206;59.956;30.234;2023-03-01T07:30:24;4.93;;;2.88;;
78854;SDS011;68206;59.956;30.234;2023-03-01T07:32:57;4.35;;;1.70;;
78854;SDS011;68206;59.956;30.234;2023-03-01T07:35:26;4.40;;;2.00;;
78854;SDS011;68206;59.956;30.234;2023-03-01T07:37:55;6.68;;;2.90;;
78854;SDS011;68206;59.956;30.234;2023-03-01T07:40:24;4.40;;;4.03;;
78854;SDS011;68206;59.956;30.234;2023-03-01T07:42:57;6.72;;;4.32;;
78854;SDS011;68206;59.956;30.234;2023-03-01T07:45:26;6.22;;;4.60;;
78854;SDS011;68206;59.956;30.234;2023-03-01T07:47:57;6.25;;;5.63;;
78854;SDS011;68206;59.956;30.234;2023-03-01T07:50:26;7.03;;;6.32;;
78854;SDS011;68206;59.956;30.234;2023-03-01T07:52:55;9.75;;;8.95;;
78854;SDS011;68206;59.956;30.234;2023-03-01T07:55:23;14.48;;;13.32;;
78854;SDS011;68206;59.956;30.234;2023-03-01T07:57:52;11.20;;;9.98;;
78854;SDS011;68206;59.956;30.234;2023-03-01T08:00:21;6.68;;;3.20;;
78854;SDS011;68206;59.956;30.234;2023-03-01T08:02:50;7.68;;;3.90;;
78854;SDS011;68206;59.956;30.234;2023-03-01T08:05:21;10.57;;;9.45;;
78854;SDS011;68206;59.956;30.234;2023-03-01T08:07:50;12.90;;;11.93;;
78854;SDS011;68206;59.956;30.234;2023-03-01T08:10:18;13.68;;;12.77;;
78854;SDS011;68206;59.956;30.234;2023-03-01T08:12:47;21.08;;;19.90;;
78854;SDS011;68206;59.956;30.234;2023-03-01T08:15:16;10.02;;;9.13;;
78854;SDS011;68206;59.956;30.234;2023-03-01T08:17:48;5.38;;;2.08;;
78854;SDS011;68206;59.956;30.234;2023-03-01T08:20:18;10.20;;;9.38;;
78854;SDS011;68206;59.956;30.234;2023-03-01T08:22:48;10.35;;;9.63;;
78854;SDS011;68206;59.956;30.234;2023-03-01T08:25:17;4.68;;;1.90;;
78854;SDS011;68206;59.956;30.234;2023-03-01T08:27:46;5.45;;;1.70;;
78854;SDS011;68206;59.956;30.234;2023-03-01T08:30:15;4.00;;;1.60;;
78854;SDS011;68206;59.956;30.234;2023-03-01T08:32:44;4.85;;;1.30;;
78854;SDS011;68206;59.956;30.234;2023-03-01T08:35:12;4.95;;;1.25;;
78854;SDS011;68206;59.956;30.234;2023-03-01T08:37:42;6.68;;;2.17;;
78854;SDS011;68206;59.956;30.234;2023-03-01T08:40:12;3.97;;;1.23;;
78854;SDS011;68206;59.956;30.234;2023-03-01T08:42:42;3.75;;;1.90;;
78854;SDS011;68206;59.956;30.234;2023-03-01T08:45:11;6.15;;;1.20;;
78854;SDS011;68206;59.956;30.234;2023-03-01T08:47:41;5.40;;;1.45;;
78854;SDS011;68206;59.956;30.234;2023-03-01T08:50:10;4.22;;;1.40;;
78854;SDS011;68206;59.956;30.234;2023-03-01T08:52:39;4.68;;;1.70;;
78854;SDS011;68206;59.956;30.234;2023-03-01T08:55:08;6.40;;;1.65;;
78854;SDS011;68206;59.956;30.234;2023-03-01T08:57:39;4.75;;;1.20;;
78854;SDS011;68206;59.956;30.234;2023-03-01T09:00:09;4.82;;;1.45;;
78854;SDS011;68206;59.956;30.234;2023-03-01T09:02:42;2.92;;;1.38;;
78854;SDS011;68206;59.956;30.234;2023-03-01T09:05:10;3.60;;;1.30;;
78854;SDS011;68206;59.956;30.234;2023-03-01T09:07:39;3.88;;;1.40;;
78854;SDS011;68206;59.956;30.234;2023-03-01T09:10:09;1.98;;;1.10;;
78854;SDS011;68206;59.956;30.234;2023-03-01T09:12:39;2.75;;;1.40;;
78854;SDS011;68206;59.956;30.234;2023-03-01T09:15:09;4.78;;;1.30;;
78854;SDS011;68206;59.956;30.234;2023-03-01T09:17:38;15.73;;;1.70;;
78854;SDS011;68206;59.956;30.234;2023-03-01T09:20:07;2.55;;;1.15;;
78854;SDS011;68206;59.956;30.234;2023-03-01T09:22:37;4.60;;;1.27;;
78854;SDS011;68206;59.956;30.234;2023-03-01T09:25:06;5.63;;;1.05;;
78854;SDS011;68206;59.956;30.234;2023-03-01T09:27:35;5.47;;;1.45;;
78854;SDS011;68206;59.956;30.234;2023-03-01T09:30:06;6.05;;;1.25;;
78854;SDS011;68206;59.956;30.234;2023-03-01T09:32:36;7.97;;;1.65;;
78854;SDS011;68206;59.956;30.234;2023-03-01T09:35:09;3.40;;;1.23;;
78854;SDS011;68206;59.956;30.234;2023-03-01T09:37:38;5.47;;;1.60;;
78854;SDS011;68206;59.956;30.234;2023-03-01T09:40:12;3.75;;;1.30;;
78854;SDS011;68206;59.956;30.234;2023-03-01T09:42:48;4.22;;;1.40;;
78854;SDS011;68206;59.956;30.234;2023-03-01T09:48:01;2.28;;;1.15;;
78854;SDS011;68206;59.956;30.234;2023-03-01T09:50:32;2.17;;;1.13;;
78854;SDS011;68206;59.956;30.234;2023-03-01T09:53:04;5.90;;;1.60;;
78854;SDS011;68206;59.956;30.234;2023-03-01T09:55:37;4.75;;;1.75;;
78854;SDS011;68206;59.956;30.234;2023-03-01T09:58:21;4.30;;;1.40;;
78854;SDS011;68206;59.956;30.234;2023-03-01T10:01:02;2.97;;;1.15;;
78854;SDS011;68206;59.956;30.234;2023-03-01T10:03:40;7.78;;;1.50;;
78854;SDS011;68206;59.956;30.234;2023-03-01T10:06:14;2.22;;;1.15;;
78854;SDS011;68206;59.956;30.234;2023-03-01T10:09:02;4.32;;;1.17;;
78854;SDS011;68206;59.956;30.234;2023-03-01T10:11:36;2.50;;;1.20;;
78854;SDS011;68206;59.956;30.234;2023-03-01T10:14:15;5.05;;;1.33;;
78854;SDS011;68206;59.956;30.234;2023-03-01T10:16:58;4.05;;;1.30;;
78854;SDS011;68206;59.956;30.234;2023-03-01T10:19:31;2.85;;;0.90;;
78854;SDS011;68206;59.956;30.234;2023-03-01T10:22:05;2.00;;;1.25;;
78854;SDS011;68206;59.956;30.234;2023-03-01T10:24:41;6.80;;;1.80;;
78854;SDS011;68206;59.956;30.234;2023-03-01T10:27:14;5.57;;;1.13;;
78854;SDS011;68206;59.956;30.234;2023-03-01T10:29:49;1.52;;;0.90;;
78854;SDS011;68206;59.956;30.234;2023-03-01T10:32:27;2.03;;;1.10;;
78854;SDS011;68206;59.956;30.234;2023-03-01T10:34:56;7.07;;;1.27;;
78854;SDS011;68206;59.956;30.234;2023-03-01T10:37:25;3.00;;;1.50;;
78854;SDS011;68206;59.956;30.234;2023-03-01T10:39:56;3.45;;;1.10;;
78854;SDS011;68206;59.956;30.234;2023-03-01T10:42:27;3.50;;;1.15;;
78854;SDS011;68206;59.956;30.234;2023-03-01T10:44:58;7.10;;;1.40;;
78854;SDS011;68206;59.956;30.234;2023-03-01T10:47:45;3.80;;;1.30;;
78854;SDS011;68206;59.956;30.234;2023-03-01T10:50:20;5.80;;;1.38;;
78854;SDS011;68206;59.956;30.234;2023-03-01T10:52:57;3.60;;;1.13;;
78854;SDS011;68206;59.956;30.234;2023-03-01T10:55:29;6.55;;;1.55;;
78854;SDS011;68206;59.956;30.234;2023-03-01T10:58:11;7.07;;;1.50;;
78854;SDS011;68206;59.956;30.234;2023-03-01T11:00:47;4.72;;;1.10;;
78854;SDS011;68206;59.956;30.234;2023-03-01T11:03:20;5.65;;;1.60;;
78854;SDS011;68206;59.956;30.234;2023-03-01T11:08:34;3.30;;;1.02;;
78854;SDS011;68206;59.956;30.234;2023-03-01T11:11:17;3.35;;;1.15;;
78854;SDS011;68206;59.956;30.234;2023-03-01T11:13:50;3.38;;;1.00;;
78854;SDS011;68206;59.956;30.234;2023-03-01T11:16:26;1.27;;;0.80;;
78854;SDS011;68206;59.956;30.234;2023-03-01T11:19:00;2.38;;;0.88;;
78854;SDS011;68206;59.956;30.234;2023-03-01T11:21:41;2.83;;;1.00;;
78854;SDS011;68206;59.956;30.234;2023-03-01T11:24:19;3.22;;;1.15;;
78854;SDS011;68206;59.956;30.234;2023-03-01T11:26:53;4.35;;;1.50;;
78854;SDS011;68206;59.956;30.234;2023-03-01T11:29:26;6.28;;;1.25;;
78854;SDS011;68206;59.956;30.234;2023-03-01T11:32:14;4.03;;;1.20;;
78854;SDS011;68206;59.956;30.234;2023-03-01T11:34:47;2.55;;;1.13;;
78854;SDS011;68206;59.956;30.234;2023-03-01T11:37:26;2.28;;;1.15;;
78854;SDS011;68206;59.956;30.234;2023-03-01T11:40:13;2.17;;;1.00;;
78854;SDS011;68206;59.956;30.234;2023-03-01T11:42:52;4.05;;;1.40;;
78854;SDS011;68206;59.956;30.234;2023-03-01T11:45:30;1.80;;;0.90;;
78854;SDS011;68206;59.956;30.234;2023-03-01T11:48:13;2.15;;;1.10;;
78854;SDS011;68206;59.956;30.234;2023-03-01T11:51:17;3.90;;;1.70;;
78854;SDS011;68206;59.956;30.234;2023-03-01T11:53:56;2.30;;;1.08;;
78854;SDS011;68206;59.956;30.234;2023-03-01T11:56:34;1.98;;;1.23;;
78854;SDS011;68206;59.956;30.234;2023-03-01T12:05:18;3.45;;;1.48;;
78854;SDS011;68206;59.956;30.234;2023-03-01T12:07:56;4.38;;;1.30;;
78854;SDS011;68206;59.956;30.234;2023-03-01T12:10:37;5.53;;;1.50;;
78854;SDS011;68206;59.956;30.234;2023-03-01T12:13:22;2.58;;;1.30;;
78854;SDS011;68206;59.956;30.234;2023-03-01T12:16:09;2.50;;;1.40;;
78854;SDS011;68206;59.956;30.234;2023-03-01T12:22:04;3.33;;;1.40;;
78854;SDS011;68206;59.956;30.234;2023-03-01T12:24:49;4.63;;;1.52;;
78854;SDS011;68206;59.956;30.234;2023-03-01T12:27:28;4.00;;;1.23;;
78854;SDS011;68206;59.956;30.234;2023-03-01T12:30:17;2.85;;;1.35;;
78854;SDS011;68206;59.956;30.234;2023-03-01T12:32:59;1.35;;;1.05;;
78854;SDS011;68206;59.956;30.234;2023-03-01T12:38:37;3.78;;;1.42;;
78854;SDS011;68206;59.956;30.234;2023-03-01T12:47:11;1.90;;;1.20;;
78854;SDS011;68206;59.956;30.234;2023-03-01T12:49:52;1.67;;;1.35;;
78854;SDS011;68206;59.956;30.234;2023-03-01T12:52:28;6.28;;;1.40;;
78854;SDS011;68206;59.956;30.234;2023-03-01T12:55:06;1.65;;;1.33;;
78854;SDS011;68206;59.956;30.234;2023-03-01T12:57:50;4.13;;;1.50;;
78854;SDS011;68206;59.956;30.234;2023-03-01T13:00:26;5.20;;;1.30;;
78854;SDS011;68206;59.956;30.234;2023-03-01T13:03:03;3.40;;;1.40;;
78854;SDS011;68206;59.956;30.234;2023-03-01T13:05:41;4.75;;;1.23;;
78854;SDS011;68206;59.956;30.234;2023-03-01T13:08:20;2.30;;;0.98;;
78854;SDS011;68206;59.956;30.234;2023-03-01T13:10:56;3.42;;;1.45;;
78854;SDS011;68206;59.956;30.234;2023-03-01T13:13:30;3.95;;;1.05;;
78854;SDS011;68206;59.956;30.234;2023-03-01T13:16:19;3.47;;;1.05;;
78854;SDS011;68206;59.956;30.234;2023-03-01T13:18:50;2.75;;;1.23;;
78854;SDS011;68206;59.956;30.234;2023-03-01T13:21:35;4.80;;;1.00;;
78854;SDS011;68206;59.956;30.234;2023-03-01T13:24:04;3.78;;;0.98;;
78854;SDS011;68206;59.956;30.234;2023-03-01T13:26:33;1.67;;;1.25;;
78854;SDS011;68206;59.956;30.234;2023-03-01T13:29:45;3.40;;;1.17;;
78854;SDS011;68206;59.956;30.234;2023-03-01T13:32:19;4.43;;;1.15;;
78854;SDS011;68206;59.956;30.234;2023-03-01T13:35:00;2.72;;;1.10;;
78854;SDS011;68206;59.956;30.234;2023-03-01T13:37:33;4.57;;;1.50;;
78854;SDS011;68206;59.956;30.234;2023-03-01T13:40:56;1.42;;;1.13;;
78854;SDS011;68206;59.956;30.234;2023-03-01T13:43:23;2.50;;;1.15;;
78854;SDS011;68206;59.956;30.234;2023-03-01T13:45:59;4.35;;;1.45;;
78854;SDS011;68206;59.956;30.234;2023-03-01T13:48:30;2.75;;;1.10;;
78854;SDS011;68206;59.956;30.234;2023-03-01T13:51:02;5.03;;;1.48;;
78854;SDS011;68206;59.956;30.234;2023-03-01T13:53:34;5.15;;;1.10;;
78854;SDS011;68206;59.956;30.234;2023-03-01T13:56:07;3.47;;;1.30;;
78854;SDS011;68206;59.956;30.234;2023-03-01T13:58:49;2.97;;;1.40;;
78854;SDS011;68206;59.956;30.234;2023-03-01T14:01:23;2.47;;;1.50;;
78854;SDS011;68206;59.956;30.234;2023-03-01T14:03:54;4.85;;;1.50;;
78854;SDS011;68206;59.956;30.234;2023-03-01T14:06:24;1.85;;;0.95;;
78854;SDS011;68206;59.956;30.234;2023-03-01T14:09:00;2.67;;;1.30;;
78854;SDS011;68206;59.956;30.234;2023-03-01T14:11:48;4.15;;;1.95;;
78854;SDS011;68206;59.956;30.234;2023-03-01T14:14:39;3.38;;;1.58;;
78854;SDS011;68206;59.956;30.234;2023-03-01T14:17:27;3.25;;;1.58;;
78854;SDS011;68206;59.956;30.234;2023-03-01T14:20:17;6.80;;;1.80;;
78854;SDS011;68206;59.956;30.234;2023-03-01T14:22:49;3.28;;;1.52;;
78854;SDS011;68206;59.956;30.234;2023-03-01T14:25:24;4.45;;;1.50;;
78854;SDS011;68206;59.956;30.234;2023-03-01T14:27:56;4.30;;;1.20;;
78854;SDS011;68206;59.956;30.234;2023-03-01T14:30:27;5.60;;;1.65;;
78854;SDS011;68206;59.956;30.234;2023-03-01T14:33:03;5.00;;;1.98;;
78854;SDS011;68206;59.956;30.234;2023-03-01T14:35:34;4.68;;;1.35;;
78854;SDS011;68206;59.956;30.234;2023-03-01T14:38:04;5.85;;;1.65;;
78854;SDS011;68206;59.956;30.234;2023-03-01T14:40:34;3.42;;;1.25;;
78854;SDS011;68206;59.956;30.234;2023-03-01T14:43:08;1.40;;;0.90;;
78854;SDS011;68206;59.956;30.234;2023-03-01T14:45:39;4.63;;;1.30;;
78854;SDS011;68206;59.956;30.234;2023-03-01T14:48:16;2.65;;;1.27;;
78854;SDS011;68206;59.956;30.234;2023-03-01T14:50:46;2.92;;;1.23;;
78854;SDS011;68206;59.956;30.234;2023-03-01T14:53:17;2.45;;;1.73;;
78854;SDS011;68206;59.956;30.234;2023-03-01T14:55:48;0.70;;;0.70;;
78854;SDS011;68206;59.956;30.234;2023-03-01T14:58:21;3.15;;;1.10;;
78854;SDS011;68206;59.956;30.234;2023-03-01T15:00:53;1.02;;;0.80;;
78854;SDS011;68206;59.956;30.234;2023-03-01T15:03:26;3.40;;;1.20;;
78854;SDS011;68206;59.956;30.234;2023-03-01T15:06:01;2.33;;;1.35;;
78854;SDS011;68206;59.956;30.234;2023-03-01T15:08:32;2.28;;;1.10;;
78854;SDS011;68206;59.956;30.234;2023-03-01T15:11:02;2.08;;;0.98;;
78854;SDS011;68206;59.956;30.234;2023-03-01T15:13:36;1.45;;;0.80;;
78854;SDS011;68206;59.956;30.234;2023-03-01T15:16:06;1.33;;;1.10;;
78854;SDS011;68206;59.956;30.234;2023-03-01T15:18:42;1.80;;;0.90;;
78854;SDS011;68206;59.956;30.234;2023-03-01T15:21:16;1.65;;;0.70;;
78854;SDS011;68206;59.956;30.234;2023-03-01T15:23:50;1.20;;;0.82;;
78854;SDS011;68206;59.956;30.234;2023-03-01T15:26:27;1.45;;;1.10;;
78854;SDS011;68206;59.956;30.234;2023-03-01T15:28:58;1.23;;;0.70;;
78854;SDS011;68206;59.956;30.234;2023-03-01T15:31:29;2.95;;;0.90;;